createdAt,value
2023-05-05T00:00:53.092Z,1933.00
2023-05-05T00:01:53.112Z,1928.00
2023-05-05T00:02:53.174Z,1927.00
2023-05-05T00:03:53.121Z,1924.00
2023-05-05T00:04:53.068Z,1913.00
2023-05-05T00:05:53.062Z,1907.00
2023-05-05T00:06:53.060Z,1910.00
2023-05-05T00:07:53.058Z,1915.00
2023-05-05T00:08:53.051Z,1913.00
2023-05-05T00:09:53.045Z,1909.00
2023-05-05T00:10:53.076Z,1913.00
2023-05-05T00:11:53.050Z,1917.00
2023-05-05T00:12:53.090Z,1922.00
2023-05-05T00:13:53.066Z,1925.00
2023-05-05T00:14:53.072Z,1920.00
2023-05-05T00:15:53.092Z,1917.00
2023-05-05T00:16:53.105Z,1915.00
2023-05-05T00:17:53.189Z,1914.00
2023-05-05T00:18:53.081Z,1914.00
2023-05-05T00:19:53.087Z,1910.00
2023-05-05T00:20:53.098Z,1903.00
2023-05-05T00:21:53.121Z,1904.00
2023-05-05T00:22:53.125Z,1904.00
2023-05-05T00:23:53.118Z,1901.00
2023-05-05T00:24:53.127Z,1896.00
2023-05-05T00:25:53.118Z,1896.00
2023-05-05T00:26:53.155Z,1894.00
2023-05-05T00:27:53.137Z,1893.00
2023-05-05T00:28:53.159Z,1898.00
2023-05-05T00:29:53.157Z,1896.00
2023-05-05T00:30:53.228Z,1891.00
2023-05-05T00:31:53.164Z,1885.00
2023-05-05T00:32:53.228Z,1879.00
2023-05-05T00:33:53.184Z,1883.00
2023-05-05T00:34:53.182Z,1883.00
2023-05-05T00:35:53.191Z,1878.00
2023-05-05T00:36:53.203Z,1880.00
2023-05-05T00:37:53.204Z,1877.00
2023-05-05T00:38:53.205Z,1877.00
2023-05-05T00:39:53.209Z,1878.00
2023-05-05T00:40:53.212Z,1874.00
2023-05-05T00:41:53.260Z,1871.00
2023-05-05T00:42:53.260Z,1871.00
2023-05-05T00:43:53.241Z,1867.00
2023-05-05T00:44:53.244Z,1865.00
2023-05-05T00:45:53.249Z,1854.00
2023-05-05T00:46:53.248Z,1858.00
2023-05-05T00:47:53.274Z,1860.00
2023-05-05T00:48:53.337Z,1864.00
2023-05-05T00:49:53.269Z,1861.00
2023-05-05T00:50:53.279Z,1864.00
2023-05-05T00:51:53.278Z,1860.00
2023-05-05T00:52:53.287Z,1852.00
2023-05-05T00:53:53.324Z,1847.00
2023-05-05T00:54:53.307Z,1843.00
2023-05-05T00:55:53.310Z,1839.00
2023-05-05T00:56:53.330Z,1830.00
2023-05-05T00:57:53.325Z,1833.00
2023-05-05T00:58:53.372Z,1835.00
2023-05-05T00:59:53.349Z,1830.00
2023-05-05T01:00:53.378Z,1832.00
2023-05-05T01:01:53.401Z,1822.00
2023-05-05T01:02:54.366Z,1819.00
2023-05-05T01:03:53.560Z,1820.00
2023-05-05T01:04:53.394Z,1816.00
2023-05-05T01:05:53.401Z,1811.00
2023-05-05T01:06:53.425Z,1811.00
2023-05-05T01:07:53.419Z,1810.00
2023-05-05T01:08:53.428Z,1806.00
2023-05-05T01:10:04.179Z,1806.00
2023-05-05T01:10:53.437Z,1804.00
2023-05-05T01:11:53.416Z,1804.00
2023-05-05T01:12:53.458Z,1800.00
2023-05-05T01:13:53.411Z,1800.00
2023-05-05T01:14:53.437Z,1803.00
2023-05-05T01:15:53.463Z,1802.00
2023-05-05T01:16:53.397Z,1804.00
2023-05-05T01:17:53.410Z,1801.00
2023-05-05T01:18:53.376Z,1795.00
2023-05-05T01:19:53.369Z,1795.00
2023-05-05T01:20:53.387Z,1793.00
2023-05-05T01:21:53.377Z,1791.00
2023-05-05T01:22:53.360Z,1790.00
2023-05-05T01:23:53.350Z,1787.00
2023-05-05T01:24:53.326Z,1791.00
2023-05-05T01:25:53.342Z,1786.00
2023-05-05T01:26:53.319Z,1779.00
2023-05-05T01:27:53.317Z,1776.00
2023-05-05T01:28:53.318Z,1773.00
2023-05-05T01:29:53.301Z,1771.00
2023-05-05T01:30:53.314Z,1762.00
2023-05-05T01:31:53.396Z,1760.00
2023-05-05T01:32:53.344Z,1756.00
2023-05-05T01:33:53.266Z,1756.00
2023-05-05T01:34:53.266Z,1756.00
2023-05-05T01:35:53.261Z,1759.00
2023-05-05T01:36:53.253Z,1759.00
2023-05-05T01:37:53.247Z,1755.00
2023-05-05T01:38:53.236Z,1749.00
2023-05-05T01:39:53.218Z,1747.00
2023-05-05T01:40:53.217Z,1742.00
2023-05-05T01:41:53.225Z,1742.00
2023-05-05T01:42:53.209Z,1744.00
2023-05-05T01:43:53.210Z,1745.00
2023-05-05T01:44:53.202Z,1750.00
2023-05-05T01:45:53.210Z,1746.00
2023-05-05T01:46:53.205Z,1748.00
2023-05-05T01:47:53.185Z,1746.00
2023-05-05T01:48:53.162Z,1745.00
2023-05-05T01:49:53.158Z,1745.00
2023-05-05T01:50:53.158Z,1742.00
2023-05-05T01:51:53.142Z,1744.00
2023-05-05T01:52:53.127Z,1746.00
2023-05-05T01:53:53.131Z,1741.00
2023-05-05T01:54:53.121Z,1739.00
2023-05-05T01:55:53.115Z,1742.00
2023-05-05T01:56:53.111Z,1742.00
2023-05-05T01:57:53.105Z,1744.00
2023-05-05T01:58:53.100Z,1745.00
2023-05-05T01:59:53.101Z,1743.00
2023-05-05T02:00:53.093Z,1746.00
2023-05-05T02:01:53.071Z,1744.00
2023-05-05T02:02:53.190Z,1742.00
2023-05-05T02:03:53.053Z,1738.00
2023-05-05T02:04:53.044Z,1738.00
2023-05-05T02:05:53.053Z,1740.00
2023-05-05T02:06:53.089Z,1741.00
2023-05-05T02:07:53.021Z,1742.00
2023-05-05T02:08:53.055Z,1742.00
2023-05-05T02:09:53.014Z,1736.00
2023-05-05T02:10:53.017Z,1729.00
2023-05-05T02:11:53.036Z,1719.00
2023-05-05T02:12:53.102Z,1717.00
2023-05-05T02:13:53.086Z,1713.00
2023-05-05T02:14:53.099Z,1708.00
2023-05-05T02:15:53.240Z,1716.00
2023-05-05T02:16:53.142Z,1716.00
2023-05-05T02:17:53.274Z,1713.00
2023-05-05T02:18:53.206Z,1713.00
2023-05-05T02:19:53.222Z,1712.00
2023-05-05T02:20:53.231Z,1710.00
2023-05-05T02:21:53.258Z,1711.00
2023-05-05T02:22:53.279Z,1710.00
2023-05-05T02:23:53.302Z,1706.00
2023-05-05T02:24:53.318Z,1705.00
2023-05-05T02:25:53.370Z,1701.00
2023-05-05T02:26:53.376Z,1697.00
2023-05-05T02:27:53.401Z,1693.00
2023-05-05T02:28:53.417Z,1694.00
2023-05-05T02:29:53.431Z,1698.00
2023-05-05T02:30:53.457Z,1695.00
2023-05-05T02:31:53.578Z,1693.00
2023-05-05T02:32:53.727Z,1688.00
2023-05-05T02:33:53.540Z,1677.00
2023-05-05T02:34:53.579Z,1674.00
2023-05-05T02:35:53.590Z,1674.00
2023-05-05T02:36:53.600Z,1678.00
2023-05-05T02:37:54.445Z,1673.00
2023-05-05T02:38:53.652Z,1672.00
2023-05-05T02:39:53.668Z,1668.00
2023-05-05T02:40:53.699Z,1665.00
2023-05-05T02:41:53.718Z,1664.00
2023-05-05T02:42:53.738Z,1662.00
2023-05-05T02:43:53.756Z,1661.00
2023-05-05T02:44:53.769Z,1661.00
2023-05-05T02:45:53.795Z,1658.00
2023-05-05T02:46:53.893Z,1659.00
2023-05-05T02:47:53.890Z,1660.00
2023-05-05T02:48:53.861Z,1662.00
2023-05-05T02:49:53.884Z,1660.00
2023-05-05T02:50:53.936Z,1656.00
2023-05-05T02:51:53.928Z,1651.00
2023-05-05T02:52:53.956Z,1654.00
2023-05-05T02:53:53.973Z,1650.00
2023-05-05T02:54:54.000Z,1645.00
2023-05-05T02:55:54.017Z,1643.00
2023-05-05T02:56:54.050Z,1639.00
2023-05-05T02:57:54.063Z,1638.00
2023-05-05T02:58:54.100Z,1639.00
2023-05-05T02:59:54.114Z,1636.00
2023-05-05T03:00:54.140Z,1640.00
2023-05-05T03:01:54.214Z,1637.00
2023-05-05T03:02:54.320Z,1643.00
2023-05-05T03:03:54.220Z,1644.00
2023-05-05T03:04:54.213Z,1644.00
2023-05-05T03:05:54.254Z,1636.00
2023-05-05T03:06:54.299Z,1627.00
2023-05-05T03:07:54.289Z,1624.00
2023-05-05T03:08:54.315Z,1614.00
2023-05-05T03:09:54.338Z,1618.00
2023-05-05T03:10:54.362Z,1620.00
2023-05-05T03:11:54.404Z,1617.00
2023-05-05T03:12:54.526Z,1617.00
2023-05-05T03:13:54.437Z,1619.00
2023-05-05T03:14:54.464Z,1617.00
2023-05-05T03:15:54.507Z,1618.00
2023-05-05T03:16:54.529Z,1612.00
2023-05-05T03:17:54.587Z,1609.00
2023-05-05T03:18:54.584Z,1609.00
2023-05-05T03:19:54.610Z,1605.00
2023-05-05T03:20:54.642Z,1603.00
2023-05-05T03:21:54.699Z,1602.00
2023-05-05T03:22:54.738Z,1603.00
2023-05-05T03:23:54.725Z,1605.00
2023-05-05T03:24:54.754Z,1604.00
2023-05-05T03:25:54.781Z,1603.00
2023-05-05T03:26:54.839Z,1598.00
2023-05-05T03:27:54.846Z,1594.00
2023-05-05T03:28:54.879Z,1591.00
2023-05-05T03:29:54.915Z,1587.00
2023-05-05T03:30:54.946Z,1583.00
2023-05-05T03:31:55.031Z,1581.00
2023-05-05T03:32:55.137Z,1580.00
2023-05-05T03:33:55.033Z,1582.00
2023-05-05T03:34:55.069Z,1579.00
2023-05-05T03:35:55.113Z,1573.00
2023-05-05T03:36:55.151Z,1578.00
2023-05-05T03:37:55.173Z,1574.00
2023-05-05T03:38:55.235Z,1570.00
2023-05-05T03:39:55.235Z,1572.00
2023-05-05T03:40:55.277Z,1567.00
2023-05-05T03:41:55.330Z,1568.00
2023-05-05T03:42:55.346Z,1566.00
2023-05-05T03:43:55.380Z,1568.00
2023-05-05T03:44:55.426Z,1569.00
2023-05-05T03:45:55.489Z,1564.00
2023-05-05T03:46:55.472Z,1566.00
2023-05-05T03:47:55.527Z,1561.00
2023-05-05T03:48:55.541Z,1558.00
2023-05-05T03:49:55.576Z,1557.00
2023-05-05T03:50:55.604Z,1556.00
2023-05-05T03:51:55.632Z,1553.00
2023-05-05T03:52:55.683Z,1553.00
2023-05-05T03:53:55.714Z,1550.00
2023-05-05T03:54:55.802Z,1545.00
2023-05-05T03:55:55.785Z,1549.00
2023-05-05T03:56:55.824Z,1547.00
2023-05-05T03:57:55.857Z,1545.00
2023-05-05T03:58:55.883Z,1542.00
2023-05-05T03:59:55.929Z,1540.00
2023-05-05T04:00:55.962Z,1544.00
2023-05-05T04:01:56.028Z,1544.00
2023-05-05T04:02:56.070Z,1546.00
2023-05-05T04:03:56.080Z,1547.00
2023-05-05T04:04:56.093Z,1546.00
2023-05-05T04:05:56.136Z,1549.00
2023-05-05T04:06:56.157Z,1545.00
2023-05-05T04:07:56.189Z,1541.00
2023-05-05T04:08:56.217Z,1535.00
2023-05-05T04:09:56.256Z,1529.00
2023-05-05T04:10:56.308Z,1529.00
2023-05-05T04:11:56.316Z,1526.00
2023-05-05T04:12:56.447Z,1530.00
2023-05-05T04:13:56.394Z,1531.00
2023-05-05T04:14:56.424Z,1526.00
2023-05-05T04:15:56.497Z,1516.00
2023-05-05T04:16:56.500Z,1514.00
2023-05-05T04:17:56.559Z,1514.00
2023-05-05T04:18:56.563Z,1515.00
2023-05-05T04:19:56.610Z,1516.00
2023-05-05T04:20:56.661Z,1517.00
2023-05-05T04:21:56.692Z,1511.00
2023-05-05T04:22:56.718Z,1513.00
2023-05-05T04:23:56.730Z,1510.00
2023-05-05T04:24:56.756Z,1513.00
2023-05-05T04:25:56.800Z,1514.00
2023-05-05T04:26:56.860Z,1515.00
2023-05-05T04:27:56.866Z,1512.00
2023-05-05T04:28:56.904Z,1512.00
2023-05-05T04:29:56.932Z,1507.00
2023-05-05T04:30:57.002Z,1509.00
2023-05-05T04:31:56.999Z,1507.00
2023-05-05T04:32:57.077Z,1506.00
2023-05-05T04:33:57.059Z,1507.00
2023-05-05T04:34:57.094Z,1504.00
2023-05-05T04:35:57.155Z,1495.00
2023-05-05T04:36:57.305Z,1494.00
2023-05-05T04:37:57.184Z,1494.00
2023-05-05T04:38:57.249Z,1491.00
2023-05-05T04:39:57.258Z,1489.00
2023-05-05T04:40:57.296Z,1487.00
2023-05-05T04:41:57.319Z,1482.00
2023-05-05T04:42:57.381Z,1484.00
2023-05-05T04:43:57.390Z,1478.00
2023-05-05T04:44:57.420Z,1478.00
2023-05-05T04:45:57.448Z,1478.00
2023-05-05T04:46:57.634Z,1479.00
2023-05-05T04:47:57.558Z,1477.00
2023-05-05T04:48:57.533Z,1477.00
2023-05-05T04:49:57.571Z,1471.00
2023-05-05T04:50:57.625Z,1465.00
2023-05-05T04:51:57.661Z,1467.00
2023-05-05T04:52:57.664Z,1461.00
2023-05-05T04:53:57.689Z,1460.00
2023-05-05T04:54:57.730Z,1463.00
2023-05-05T04:55:57.757Z,1463.00
2023-05-05T04:56:57.793Z,1463.00
2023-05-05T04:57:57.840Z,1464.00
2023-05-05T04:58:57.875Z,1464.00
2023-05-05T04:59:57.881Z,1462.00
2023-05-05T05:00:57.915Z,1462.00
2023-05-05T05:01:58.019Z,1463.00
2023-05-05T05:02:58.074Z,1467.00
2023-05-05T05:03:58.076Z,1462.00
2023-05-05T05:04:58.049Z,1462.00
2023-05-05T05:05:58.055Z,1460.00
2023-05-05T05:06:59.365Z,1460.00
2023-05-05T05:07:58.125Z,1464.00
2023-05-05T05:08:58.154Z,1465.00
2023-05-05T05:09:58.194Z,1465.00
2023-05-05T05:10:58.200Z,1463.00
2023-05-05T05:11:58.230Z,1464.00
2023-05-05T05:12:58.366Z,1466.00
2023-05-05T05:13:58.294Z,1461.00
2023-05-05T05:14:58.356Z,1462.00
2023-05-05T05:15:58.855Z,1458.00
2023-05-05T05:16:58.389Z,1451.00
2023-05-05T05:17:58.900Z,1447.00
2023-05-05T05:18:59.614Z,1448.00
2023-05-05T05:19:58.427Z,1451.00
2023-05-05T05:20:57.429Z,1451.00
2023-05-05T05:21:58.441Z,1456.00
2023-05-05T05:22:58.835Z,1454.00
2023-05-05T05:23:58.395Z,1450.00
2023-05-05T05:24:58.397Z,1449.00
2023-05-05T05:25:58.393Z,1447.00
2023-05-05T05:26:58.388Z,1446.00
2023-05-05T05:28:09.519Z,1442.00
2023-05-05T05:28:58.373Z,1441.00
2023-05-05T05:29:58.360Z,1442.00
2023-05-05T05:30:58.374Z,1442.00
2023-05-05T05:31:58.907Z,1442.00
2023-05-05T05:32:58.428Z,1443.00
2023-05-05T05:33:58.340Z,1446.00
2023-05-05T05:34:58.336Z,1446.00
2023-05-05T05:35:58.325Z,1448.00
2023-05-05T05:36:58.324Z,1454.00
2023-05-05T05:37:58.309Z,1459.00
2023-05-05T05:38:58.296Z,1457.00
2023-05-05T05:39:58.302Z,1457.00
2023-05-05T05:40:58.293Z,1458.00
2023-05-05T05:41:58.326Z,1463.00
2023-05-05T05:42:58.278Z,1469.00
2023-05-05T05:43:58.278Z,1473.00
2023-05-05T05:44:58.259Z,1516.00
2023-05-05T05:45:58.262Z,1523.00
2023-05-05T05:46:58.350Z,1519.00
2023-05-05T05:47:58.272Z,1526.00
2023-05-05T05:48:58.230Z,1533.00
2023-05-05T05:49:59.232Z,1542.00
2023-05-05T05:51:01.400Z,1559.00
2023-05-05T05:51:58.325Z,1579.00
2023-05-05T05:53:05.729Z,1598.00
2023-05-05T05:54:05.580Z,1595.00
2023-05-05T05:54:59.189Z,1591.00
2023-05-05T05:56:13.785Z,1596.00
2023-05-05T05:57:01.574Z,1595.00
2023-05-05T05:57:58.201Z,1600.00
2023-05-05T05:58:58.176Z,1605.00
2023-05-05T05:59:59.679Z,1612.00
2023-05-05T06:00:58.146Z,1616.00
2023-05-05T06:02:14.058Z,1624.00
2023-05-05T06:03:01.647Z,1636.00
2023-05-05T06:03:58.423Z,1653.00
2023-05-05T06:04:58.105Z,1695.00
2023-05-05T06:07:29.950Z,1759.00
2023-05-05T06:08:01.279Z,1782.00
2023-05-05T06:08:58.350Z,1785.00
2023-05-05T06:09:58.073Z,1795.00
2023-05-05T06:10:58.162Z,1809.00
2023-05-05T06:11:59.356Z,1821.00
2023-05-05T06:12:58.065Z,1851.00
2023-05-05T06:13:58.049Z,1882.00
2023-05-05T06:16:01.320Z,1946.00
2023-05-05T06:16:58.595Z,1951.00
2023-05-05T06:17:58.062Z,1963.00
2023-05-05T06:18:58.026Z,1970.00
2023-05-05T06:19:57.997Z,1987.00
2023-05-05T06:20:58.000Z,2002.00
2023-05-05T06:21:58.004Z,2018.00
2023-05-05T06:22:57.973Z,2039.00
2023-05-05T06:23:58.350Z,2051.00
2023-05-05T06:24:57.979Z,2061.00
2023-05-05T06:25:57.985Z,2075.00
2023-05-05T06:26:58.364Z,2087.00
2023-05-05T06:27:57.950Z,2097.00
2023-05-05T06:28:58.973Z,2122.00
2023-05-05T06:29:57.960Z,2137.00
2023-05-05T06:30:57.957Z,2136.00
2023-05-05T06:31:57.947Z,2141.00
2023-05-05T06:32:57.966Z,2145.00
2023-05-05T06:33:57.959Z,2161.00
2023-05-05T06:34:57.938Z,2172.00
2023-05-05T06:35:57.922Z,2184.00
2023-05-05T06:36:57.917Z,2211.00
2023-05-05T06:37:57.957Z,2239.00
2023-05-05T06:38:58.379Z,2239.00
2023-05-05T06:39:57.899Z,2240.00
2023-05-05T06:40:57.871Z,2258.00
2023-05-05T06:41:57.882Z,2279.00
2023-05-05T06:42:57.879Z,2283.00
2023-05-05T06:43:58.376Z,2302.00
2023-05-05T06:44:57.950Z,2304.00
2023-05-05T06:45:58.543Z,2307.00
2023-05-05T06:46:58.099Z,2313.00
2023-05-05T06:47:58.166Z,2344.00
2023-05-05T06:48:58.386Z,2352.00
2023-05-05T06:49:58.265Z,2362.00
2023-05-05T06:50:58.210Z,2368.00
2023-05-05T06:51:58.281Z,2385.00
2023-05-05T06:52:58.325Z,2396.00
2023-05-05T12:18:02.349Z,613.00
2023-05-05T12:19:00.768Z,595.00
2023-05-05T12:20:00.795Z,597.00
2023-05-05T12:21:00.749Z,591.00
2023-05-05T12:22:00.768Z,587.00
2023-05-05T12:23:00.741Z,594.00
2023-05-05T12:24:00.730Z,594.00
2023-05-05T12:25:00.717Z,589.00
2023-05-05T12:26:00.717Z,591.00
2023-05-05T12:27:00.737Z,593.00
2023-05-05T12:28:00.713Z,592.00
2023-05-05T12:29:00.721Z,588.00
2023-05-05T12:30:00.691Z,587.00
2023-05-05T12:31:00.737Z,584.00
2023-05-05T12:32:00.853Z,588.00
2023-05-05T12:33:00.688Z,602.00
2023-05-05T12:34:00.759Z,587.00
2023-05-05T12:35:00.672Z,575.00
2023-05-05T12:36:00.646Z,637.00
2023-05-05T12:37:00.640Z,603.00
2023-05-05T12:38:00.638Z,567.00
2023-05-05T12:39:00.619Z,554.00
2023-05-05T12:40:00.631Z,562.00
2023-05-05T12:41:00.620Z,566.00
2023-05-05T12:42:00.603Z,575.00
2023-05-05T12:43:00.586Z,590.00
2023-05-05T12:44:00.961Z,601.00
2023-05-05T12:45:00.586Z,603.00
2023-05-05T12:46:00.628Z,598.00
2023-05-05T12:47:00.581Z,576.00
2023-05-05T12:48:00.594Z,571.00
2023-05-05T12:49:00.553Z,579.00
2023-05-05T12:50:01.089Z,580.00
2023-05-05T12:51:00.538Z,583.00
2023-05-05T12:52:00.549Z,576.00
2023-05-05T12:53:00.533Z,572.00
2023-05-05T12:54:00.516Z,589.00
2023-05-05T12:55:01.057Z,588.00
2023-05-05T12:56:00.506Z,576.00
2023-05-05T12:57:00.502Z,569.00
2023-05-05T12:58:00.515Z,573.00
2023-05-05T12:59:00.486Z,576.00
2023-05-05T13:00:00.515Z,573.00
2023-05-05T13:01:00.530Z,551.00
2023-05-05T13:02:00.585Z,536.00
2023-05-05T13:03:00.561Z,534.00
2023-05-05T13:04:00.461Z,539.00
2023-05-05T13:05:00.451Z,542.00
2023-05-05T13:06:00.706Z,543.00
2023-05-05T13:07:00.567Z,545.00
2023-05-05T13:08:00.641Z,554.00
2023-05-05T13:09:00.700Z,560.00
2023-05-05T13:10:01.000Z,558.00
2023-05-05T13:11:00.800Z,546.00
2023-05-05T13:12:00.854Z,554.00
2023-05-05T13:13:00.987Z,573.00
2023-05-05T13:14:00.965Z,615.00
2023-05-05T13:15:01.046Z,565.00
2023-05-05T13:16:01.119Z,555.00
2023-05-05T13:17:01.150Z,560.00
2023-05-05T13:18:01.409Z,559.00
2023-05-05T13:19:01.294Z,564.00
2023-05-05T13:20:01.342Z,568.00
2023-05-05T13:21:01.390Z,568.00
2023-05-05T13:22:01.559Z,571.00
2023-05-05T13:23:01.518Z,593.00
2023-05-05T13:24:19.805Z,613.00
2023-05-05T13:25:01.566Z,603.00
2023-05-05T13:26:01.980Z,611.00
2023-05-05T13:27:01.555Z,611.00
2023-05-05T13:28:01.549Z,613.00
2023-05-05T13:29:01.538Z,623.00
2023-05-05T13:30:01.984Z,626.00
2023-05-05T13:31:01.581Z,632.00
2023-05-05T13:32:01.535Z,638.00
2023-05-05T13:33:01.558Z,637.00
2023-05-05T13:34:01.983Z,642.00
2023-05-05T13:35:01.515Z,650.00
2023-05-05T13:36:01.506Z,652.00
2023-05-05T13:37:01.510Z,666.00
2023-05-05T13:38:01.615Z,670.00
2023-05-05T13:39:01.484Z,608.00
2023-05-05T13:40:01.493Z,604.00
2023-05-05T13:41:01.466Z,612.00
2023-05-05T13:42:01.460Z,608.00
2023-05-05T13:43:01.462Z,607.00
2023-05-05T13:44:01.450Z,608.00
2023-05-05T13:45:01.446Z,602.00
2023-05-05T13:46:16.070Z,587.00
2023-05-05T13:47:01.476Z,585.00
2023-05-05T13:48:01.471Z,585.00
2023-05-05T13:49:01.516Z,578.00
2023-05-05T13:50:01.408Z,580.00
2023-05-05T13:51:01.512Z,581.00
2023-05-05T13:52:01.394Z,588.00
2023-05-05T13:53:01.410Z,576.00
2023-05-05T13:54:01.496Z,575.00
2023-05-05T13:55:01.367Z,582.00
2023-05-05T13:56:01.373Z,581.00
2023-05-05T13:57:01.364Z,573.00
2023-05-05T13:58:01.345Z,563.00
2023-05-05T13:59:01.340Z,557.00
2023-05-05T14:00:01.336Z,559.00
2023-05-05T14:01:02.085Z,557.00
2023-05-05T14:02:01.325Z,543.00
2023-05-05T14:03:01.363Z,543.00
2023-05-05T14:04:03.623Z,542.00
2023-05-05T14:05:01.311Z,551.00
2023-05-05T14:06:01.299Z,559.00
2023-05-05T14:07:01.289Z,560.00
2023-05-05T14:08:01.272Z,557.00
2023-05-05T14:09:01.496Z,574.00
2023-05-05T14:10:01.360Z,566.00
2023-05-05T14:11:01.508Z,556.00
2023-05-05T14:12:01.258Z,556.00
2023-05-05T14:13:01.300Z,563.00
2023-05-05T14:14:01.301Z,562.00
2023-05-05T14:15:01.344Z,559.00
2023-05-05T14:16:01.425Z,558.00
2023-05-05T14:17:01.485Z,559.00
2023-05-05T14:18:01.538Z,561.00
2023-05-05T14:19:01.588Z,574.00
2023-05-05T14:20:01.598Z,611.00
2023-05-05T14:21:01.646Z,623.00
2023-05-05T14:22:01.723Z,630.00
2023-05-05T14:23:01.794Z,636.00
2023-05-05T14:24:01.837Z,642.00
2023-05-05T14:25:01.897Z,647.00
2023-05-05T14:26:02.599Z,650.00
2023-05-05T14:27:01.945Z,642.00
2023-05-05T14:28:01.950Z,634.00
2023-05-05T14:29:01.978Z,631.00
2023-05-05T14:30:01.970Z,632.00
2023-05-05T14:31:02.003Z,624.00
2023-05-05T14:32:02.066Z,617.00
2023-05-05T14:33:02.099Z,614.00
2023-05-05T14:34:02.509Z,591.00
2023-05-05T14:35:02.112Z,596.00
2023-05-05T14:36:02.118Z,582.00
2023-05-05T14:37:02.135Z,573.00
2023-05-05T14:38:02.178Z,570.00
2023-05-05T14:39:02.515Z,569.00
2023-05-05T14:40:04.295Z,569.00
2023-05-05T14:41:02.284Z,563.00
2023-05-05T14:42:02.378Z,567.00
2023-05-05T14:43:02.277Z,568.00
2023-05-05T14:44:02.284Z,565.00
2023-05-05T14:45:02.260Z,562.00
2023-05-05T14:46:02.352Z,562.00
2023-05-05T14:47:02.254Z,562.00
2023-05-05T14:48:02.318Z,558.00
2023-05-05T14:49:02.230Z,563.00
2023-05-05T14:50:02.274Z,560.00
2023-05-05T14:51:02.225Z,559.00
2023-05-05T14:52:02.215Z,555.00
2023-05-05T14:53:02.210Z,552.00
2023-05-05T14:54:02.200Z,549.00
2023-05-05T14:55:02.197Z,549.00
2023-05-05T14:56:02.201Z,542.00
2023-05-05T14:57:02.179Z,538.00
2023-05-05T14:58:02.346Z,537.00
2023-05-05T14:59:02.164Z,540.00
2023-05-05T15:00:02.151Z,544.00
2023-05-05T15:01:02.159Z,543.00
2023-05-05T15:02:02.630Z,542.00
2023-05-05T15:03:02.408Z,538.00
2023-05-05T15:04:02.286Z,541.00
2023-05-05T15:05:02.326Z,539.00
2023-05-05T15:06:02.380Z,540.00
2023-05-05T15:07:02.444Z,529.00
2023-05-05T15:08:02.510Z,529.00
2023-05-05T15:09:02.520Z,530.00
2023-05-05T15:10:02.582Z,529.00
2023-05-05T15:11:02.644Z,527.00
2023-05-05T15:12:02.684Z,527.00
2023-05-05T15:13:02.792Z,530.00
2023-05-05T15:14:02.790Z,539.00
2023-05-05T15:15:02.808Z,549.00
2023-05-05T15:16:02.885Z,546.00
2023-05-05T15:17:02.899Z,534.00
2023-05-05T15:18:02.987Z,532.00
2023-05-05T15:19:02.990Z,533.00
2023-05-05T15:20:03.115Z,534.00
2023-05-05T15:21:03.084Z,534.00
2023-05-05T15:22:03.126Z,538.00
2023-05-05T15:23:03.172Z,543.00
2023-05-05T15:24:03.219Z,536.00
2023-05-05T15:25:03.271Z,527.00
2023-05-05T15:26:03.330Z,524.00
2023-05-05T15:27:03.356Z,520.00
2023-05-05T15:28:03.426Z,519.00
2023-05-05T15:29:03.437Z,519.00
2023-05-05T15:30:03.701Z,521.00
2023-05-05T15:31:03.523Z,523.00
2023-05-05T15:32:03.669Z,527.00
2023-05-05T15:33:03.661Z,525.00
2023-05-05T15:34:03.668Z,533.00
2023-05-05T15:35:03.722Z,533.00
2023-05-05T15:36:03.754Z,534.00
2023-05-05T15:37:03.800Z,537.00
2023-05-05T15:38:03.843Z,521.00
2023-05-05T15:39:03.902Z,525.00
2023-05-05T15:40:03.963Z,532.00
2023-05-05T15:41:04.008Z,595.00
2023-05-05T15:42:04.054Z,583.00
2023-05-05T15:43:04.117Z,554.00
2023-05-05T15:44:04.141Z,548.00
2023-05-05T15:45:04.207Z,539.00
2023-05-05T15:46:04.265Z,530.00
2023-05-05T15:47:04.354Z,526.00
2023-05-05T15:48:04.489Z,517.00
2023-05-05T15:49:04.402Z,511.00
2023-05-05T15:50:04.453Z,540.00
2023-05-05T15:51:04.500Z,576.00
2023-05-05T15:52:04.567Z,608.00
2023-05-05T15:53:04.616Z,608.00
2023-05-05T15:54:04.690Z,610.00
2023-05-05T15:55:04.764Z,608.00
2023-05-05T15:56:04.833Z,606.00
2023-05-05T15:57:04.871Z,607.00
2023-05-05T15:58:04.909Z,609.00
2023-05-05T15:59:04.947Z,603.00
2023-05-05T16:00:04.969Z,604.00
2023-05-05T16:01:05.035Z,604.00
2023-05-05T16:02:05.116Z,603.00
2023-05-05T16:03:05.048Z,604.00
2023-05-05T16:04:05.033Z,606.00
2023-05-05T16:05:04.974Z,603.00
2023-05-05T16:06:04.966Z,604.00
2023-05-05T16:07:04.961Z,607.00
2023-05-05T16:08:04.963Z,609.00
2023-05-05T16:09:04.961Z,610.00
2023-05-05T16:10:04.966Z,612.00
2023-05-05T16:11:04.983Z,612.00
2023-05-05T16:12:04.968Z,611.00
2023-05-05T16:13:05.061Z,611.00
2023-05-05T16:14:04.966Z,607.00
2023-05-05T16:15:05.059Z,612.00
2023-05-05T16:16:04.970Z,613.00
2023-05-05T16:17:05.109Z,618.00
2023-05-05T16:18:05.043Z,618.00
2023-05-05T16:19:04.975Z,618.00
2023-05-05T16:20:05.006Z,580.00
2023-05-05T16:21:04.988Z,565.00
2023-05-05T16:22:04.977Z,566.00
2023-05-05T16:23:04.968Z,564.00
2023-05-05T16:24:04.964Z,546.00
2023-05-05T16:25:05.801Z,536.00
2023-05-05T16:26:04.962Z,536.00
2023-05-05T16:27:04.960Z,528.00
2023-05-05T16:28:04.948Z,533.00
2023-05-05T16:29:04.941Z,537.00
2023-05-05T16:30:04.941Z,528.00
2023-05-05T16:31:04.952Z,516.00
2023-05-05T16:32:04.970Z,514.00
2023-05-05T16:33:04.976Z,515.00
2023-05-05T16:34:05.032Z,515.00
2023-05-05T16:35:04.932Z,515.00
2023-05-05T16:36:04.928Z,518.00
2023-05-05T16:37:04.942Z,519.00
2023-05-05T16:38:04.946Z,517.00
2023-05-05T16:39:04.946Z,525.00
2023-05-05T16:40:04.941Z,570.00
2023-05-05T16:41:05.014Z,585.00
2023-05-05T16:42:05.039Z,596.00
2023-05-05T16:43:05.096Z,604.00
2023-05-05T16:44:05.156Z,623.00
2023-05-05T16:45:05.217Z,662.00
2023-05-05T16:46:05.305Z,672.00
2023-05-05T16:47:05.358Z,697.00
2023-05-05T16:48:08.215Z,709.00
2023-05-05T16:49:05.377Z,732.00
2023-05-05T16:50:05.415Z,745.00
2023-05-05T16:51:05.369Z,754.00
2023-05-05T16:52:05.361Z,763.00
2023-05-05T16:53:05.359Z,773.00
2023-05-05T16:54:05.349Z,784.00
2023-05-05T16:55:05.396Z,784.00
2023-05-05T16:56:05.335Z,800.00
2023-05-05T16:57:05.331Z,811.00
2023-05-05T16:58:05.319Z,815.00
2023-05-05T16:59:05.309Z,864.00
2023-05-05T17:00:05.303Z,871.00
2023-05-05T17:01:05.296Z,880.00
2023-05-05T17:02:05.379Z,882.00
2023-05-05T17:03:05.286Z,884.00
2023-05-05T17:04:05.305Z,892.00
2023-05-05T17:05:05.365Z,892.00
2023-05-05T17:06:05.489Z,909.00
2023-05-05T17:07:05.433Z,944.00
2023-05-05T17:08:05.479Z,955.00
2023-05-05T17:09:05.527Z,958.00
2023-05-05T17:10:05.582Z,966.00
2023-05-05T17:11:05.619Z,971.00
2023-05-05T17:12:05.678Z,984.00
2023-05-05T17:13:05.825Z,989.00
2023-05-05T17:14:05.767Z,992.00
2023-05-05T17:15:05.815Z,993.00
2023-05-05T17:16:05.918Z,996.00
2023-05-05T17:17:05.923Z,992.00
2023-05-05T17:18:06.007Z,1000.00
2023-05-05T17:19:06.041Z,1037.00
2023-05-05T17:20:06.085Z,1036.00
2023-05-05T17:21:06.143Z,1048.00
2023-05-05T17:22:06.224Z,952.00
2023-05-05T17:23:06.253Z,940.00
2023-05-05T17:24:06.307Z,877.00
2023-05-05T17:25:06.529Z,945.00
2023-05-05T17:26:06.433Z,954.00
2023-05-05T17:27:06.517Z,949.00
2023-05-05T17:28:06.558Z,962.00
2023-05-05T17:29:06.627Z,850.00
2023-05-05T17:30:06.680Z,884.00
2023-05-05T17:31:06.751Z,894.00
2023-05-05T17:32:06.847Z,934.00
2023-05-05T17:33:06.890Z,975.00
2023-05-05T17:34:06.931Z,956.00
2023-05-05T17:35:07.225Z,942.00
2023-05-05T17:36:07.087Z,944.00
2023-05-05T17:37:07.111Z,775.00
2023-05-05T17:38:07.270Z,749.00
2023-05-05T17:39:07.214Z,753.00
2023-05-05T17:40:07.253Z,755.00
2023-05-05T17:41:07.806Z,805.00
2023-05-05T17:42:08.051Z,825.00